sensor_id;sensor_type;location;lat;lon;timestamp;pressure;altitude;pressure_sealevel;temperature;humidity
21111;BME280;10713;51.912;4.494;2023-07-31T00:01:57;101028.03;;;17.35;100.00
21111;BME280;10713;51.912;4.494;2023-07-31T00:04:22;101016.59;;;17.33;100.00
21111;BME280;10713;51.912;4.494;2023-07-31T00:06:47;101018.41;;;17.32;100.00
21111;BME280;10713;51.912;4.494;2023-07-31T00:09:13;101005.34;;;17.28;100.00
21111;BME280;10713;51.912;4.494;2023-07-31T00:11:38;101019.66;;;17.27;100.00
21111;BME280;10713;51.912;4.494;2023-07-31T00:14:03;101017.84;;;17.27;100.00
21111;BME280;10713;51.912;4.494;2023-07-31T00:16:29;101006.13;;;17.30;100.00
21111;BME280;10713;51.912;4.494;2023-07-31T00:18:54;101014.13;;;17.30;100.00
21111;BME280;10713;51.912;4.494;2023-07-31T00:21:20;101021.16;;;17.31;100.00
21111;BME280;10713;51.912;4.494;2023-07-31T00:23:46;101012.25;;;17.45;100.00
21111;BME280;10713;51.912;4.494;2023-07-31T00:26:11;101008.91;;;17.55;100.00
21111;BME280;10713;51.912;4.494;2023-07-31T00:28:36;101002.72;;;17.55;100.00
21111;BME280;10713;51.912;4.494;2023-07-31T00:31:02;100999.78;;;17.72;100.00
21111;BME280;10713;51.912;4.494;2023-07-31T00:33:29;101000.81;;;17.70;100.00
21111;BME280;10713;51.912;4.494;2023-07-31T00:35:54;100998.34;;;17.81;100.00
21111;BME280;10713;51.912;4.494;2023-07-31T00:38:20;101000.06;;;17.68;100.00
21111;BME280;10713;51.912;4.494;2023-07-31T00:40:45;101012.22;;;17.32;100.00
21111;BME280;10713;51.912;4.494;2023-07-31T00:43:10;101006.94;;;17.45;100.00
21111;BME280;10713;51.912;4.494;2023-07-31T00:45:36;101009.63;;;17.30;100.00
21111;BME280;10713;51.912;4.494;2023-07-31T00:48:01;101000.09;;;17.41;100.00
21111;BME280;10713;51.912;4.494;2023-07-31T00:50:27;101015.59;;;17.48;100.00
21111;BME280;10713;51.912;4.494;2023-07-31T00:52:53;101008.97;;;17.27;100.00
21111;BME280;10713;51.912;4.494;2023-07-31T00:55:19;101012.91;;;17.21;100.00
21111;BME280;10713;51.912;4.494;2023-07-31T00:57:45;101029.97;;;17.19;100.00
21111;BME280;10713;51.912;4.494;2023-07-31T01:00:11;101031.91;;;17.44;100.00
21111;BME280;10713;51.912;4.494;2023-07-31T01:02:37;101014.34;;;17.13;100.00
21111;BME280;10713;51.912;4.494;2023-07-31T01:05:03;101013.91;;;17.06;100.00
21111;BME280;10713;51.912;4.494;2023-07-31T01:07:52;101008.75;;;17.03;100.00
21111;BME280;10713;51.912;4.494;2023-07-31T01:10:27;101004.56;;;16.99;100.00
21111;BME280;10713;51.912;4.494;2023-07-31T01:12:55;101008.00;;;17.01;100.00
21111;BME280;10713;51.912;4.494;2023-07-31T01:15:21;101000.75;;;17.03;100.00
21111;BME280;10713;51.912;4.494;2023-07-31T01:17:47;101001.13;;;16.97;100.00
21111;BME280;10713;51.912;4.494;2023-07-31T01:20:15;101002.66;;;17.01;100.00
21111;BME280;10713;51.912;4.494;2023-07-31T01:25:47;100984.44;;;17.07;100.00
21111;BME280;10713;51.912;4.494;2023-07-31T01:28:18;100991.19;;;17.13;100.00
21111;BME280;10713;51.912;4.494;2023-07-31T01:30:47;100969.16;;;17.24;100.00
21111;BME280;10713;51.912;4.494;2023-07-31T01:33:15;100979.59;;;17.14;100.00
21111;BME280;10713;51.912;4.494;2023-07-31T01:35:44;100991.84;;;17.17;100.00
21111;BME280;10713;51.912;4.494;2023-07-31T01:38:10;100986.63;;;17.42;100.00
21111;BME280;10713;51.912;4.494;2023-07-31T01:40:35;100988.59;;;17.53;100.00
21111;BME280;10713;51.912;4.494;2023-07-31T01:43:01;100983.81;;;17.58;100.00
21111;BME280;10713;51.912;4.494;2023-07-31T01:45:26;100972.44;;;17.69;100.00
21111;BME280;10713;51.912;4.494;2023-07-31T01:47:52;100971.75;;;17.65;100.00
21111;BME280;10713;51.912;4.494;2023-07-31T01:50:17;100974.25;;;17.41;100.00
21111;BME280;10713;51.912;4.494;2023-07-31T01:52:43;100963.97;;;17.89;100.00
21111;BME280;10713;51.912;4.494;2023-07-31T01:55:08;100954.47;;;17.58;100.00
21111;BME280;10713;51.912;4.494;2023-07-31T01:57:33;100952.56;;;17.60;100.00
21111;BME280;10713;51.912;4.494;2023-07-31T01:59:59;100951.75;;;17.85;100.00
21111;BME280;10713;51.912;4.494;2023-07-31T02:02:24;100956.84;;;17.36;100.00
21111;BME280;10713;51.912;4.494;2023-07-31T02:04:50;100936.53;;;17.60;100.00
21111;BME280;10713;51.912;4.494;2023-07-31T02:07:15;100933.09;;;17.31;100.00
21111;BME280;10713;51.912;4.494;2023-07-31T02:09:40;100932.25;;;17.30;100.00
21111;BME280;10713;51.912;4.494;2023-07-31T02:12:06;100927.03;;;17.29;100.00
21111;BME280;10713;51.912;4.494;2023-07-31T02:14:33;100924.72;;;17.77;100.00
21111;BME280;10713;51.912;4.494;2023-07-31T02:16:59;100923.50;;;17.68;100.00
21111;BME280;10713;51.912;4.494;2023-07-31T02:19:24;100929.38;;;17.73;100.00
21111;BME280;10713;51.912;4.494;2023-07-31T02:21:49;100917.31;;;17.68;100.00
21111;BME280;10713;51.912;4.494;2023-07-31T02:24:15;100923.41;;;17.70;100.00
21111;BME280;10713;51.912;4.494;2023-07-31T02:26:40;100925.09;;;17.71;100.00
21111;BME280;10713;51.912;4.494;2023-07-31T02:29:07;100925.03;;;17.72;100.00
21111;BME280;10713;51.912;4.494;2023-07-31T02:31:32;100913.50;;;17.72;100.00
21111;BME280;10713;51.912;4.494;2023-07-31T02:33:57;100910.81;;;17.72;100.00
21111;BME280;10713;51.912;4.494;2023-07-31T02:36:23;100921.50;;;17.72;100.00
21111;BME280;10713;51.912;4.494;2023-07-31T02:38:48;100908.16;;;17.72;100.00
21111;BME280;10713;51.912;4.494;2023-07-31T02:41:13;100908.16;;;17.72;100.00
21111;BME280;10713;51.912;4.494;2023-07-31T02:43:39;100911.75;;;17.71;100.00
21111;BME280;10713;51.912;4.494;2023-07-31T02:46:04;100902.13;;;17.68;100.00
21111;BME280;10713;51.912;4.494;2023-07-31T02:48:30;100907.88;;;17.49;100.00
21111;BME280;10713;51.912;4.494;2023-07-31T02:50:55;100913.50;;;17.32;100.00
21111;BME280;10713;51.912;4.494;2023-07-31T02:53:20;100904.28;;;17.63;100.00
21111;BME280;10713;51.912;4.494;2023-07-31T02:55:47;100903.69;;;17.45;100.00
21111;BME280;10713;51.912;4.494;2023-07-31T02:58:12;100902.56;;;17.49;100.00
21111;BME280;10713;51.912;4.494;2023-07-31T03:00:42;100888.09;;;17.39;100.00
21111;BME280;10713;51.912;4.494;2023-07-31T03:03:08;100876.75;;;17.63;100.00
21111;BME280;10713;51.912;4.494;2023-07-31T03:05:33;100872.06;;;17.66;100.00
21111;BME280;10713;51.912;4.494;2023-07-31T03:07:58;100876.41;;;17.67;100.00
21111;BME280;10713;51.912;4.494;2023-07-31T03:10:24;100876.28;;;17.56;100.00
21111;BME280;10713;51.912;4.494;2023-07-31T03:12:49;100887.09;;;17.54;100.00
21111;BME280;10713;51.912;4.494;2023-07-31T03:15:14;100879.94;;;17.55;100.00
21111;BME280;10713;51.912;4.494;2023-07-31T03:17:40;100878.13;;;17.55;100.00
21111;BME280;10713;51.912;4.494;2023-07-31T03:20:05;100867.25;;;17.71;100.00
21111;BME280;10713;51.912;4.494;2023-07-31T03:22:31;100864.69;;;17.57;100.00
21111;BME280;10713;51.912;4.494;2023-07-31T03:24:56;100879.28;;;17.51;100.00
21111;BME280;10713;51.912;4.494;2023-07-31T03:27:21;100864.00;;;17.53;100.00
21111;BME280;10713;51.912;4.494;2023-07-31T03:29:47;100874.47;;;17.56;100.00
21111;BME280;10713;51.912;4.494;2023-07-31T03:32:14;100874.81;;;17.52;100.00
21111;BME280;10713;51.912;4.494;2023-07-31T03:34:40;100878.94;;;17.43;100.00
21111;BME280;10713;51.912;4.494;2023-07-31T03:37:05;100865.75;;;17.67;100.00
21111;BME280;10713;51.912;4.494;2023-07-31T03:39:31;100872.91;;;17.67;100.00
21111;BME280;10713;51.912;4.494;2023-07-31T03:41:56;100854.72;;;17.59;100.00
21111;BME280;10713;51.912;4.494;2023-07-31T03:44:21;100861.56;;;17.50;100.00
21111;BME280;10713;51.912;4.494;2023-07-31T03:46:47;100851.84;;;17.49;100.00
21111;BME280;10713;51.912;4.494;2023-07-31T03:49:12;100847.56;;;17.47;100.00
21111;BME280;10713;51.912;4.494;2023-07-31T03:51:37;100853.13;;;17.44;100.00
21111;BME280;10713;51.912;4.494;2023-07-31T03:54:03;100837.41;;;17.39;100.00
21111;BME280;10713;51.912;4.494;2023-07-31T03:56:28;100838.16;;;17.28;100.00
21111;BME280;10713;51.912;4.494;2023-07-31T03:58:53;100836.84;;;17.21;100.00
21111;BME280;10713;51.912;4.494;2023-07-31T04:01:19;100830.72;;;16.79;100.00
21111;BME280;10713;51.912;4.494;2023-07-31T04:03:45;100832.25;;;16.69;100.00
21111;BME280;10713;51.912;4.494;2023-07-31T04:06:10;100833.13;;;16.70;100.00
21111;BME280;10713;51.912;4.494;2023-07-31T04:08:36;100828.53;;;16.72;100.00
21111;BME280;10713;51.912;4.494;2023-07-31T04:11:01;100825.97;;;16.70;100.00
21111;BME280;10713;51.912;4.494;2023-07-31T04:13:26;100823.44;;;16.96;100.00
21111;BME280;10713;51.912;4.494;2023-07-31T04:15:53;100816.41;;;17.07;100.00
21111;BME280;10713;51.912;4.494;2023-07-31T04:18:19;100810.16;;;17.08;100.00
21111;BME280;10713;51.912;4.494;2023-07-31T04:20:45;100809.19;;;17.09;100.00
21111;BME280;10713;51.912;4.494;2023-07-31T04:23:10;100809.06;;;17.11;100.00
21111;BME280;10713;51.912;4.494;2023-07-31T04:25:35;100806.50;;;17.09;100.00
21111;BME280;10713;51.912;4.494;2023-07-31T04:28:01;100809.28;;;17.08;100.00
21111;BME280;10713;51.912;4.494;2023-07-31T04:30:26;100797.03;;;17.05;100.00
21111;BME280;10713;51.912;4.494;2023-07-31T04:32:52;100809.69;;;17.02;100.00
21111;BME280;10713;51.912;4.494;2023-07-31T04:35:17;100804.47;;;17.00;100.00
21111;BME280;10713;51.912;4.494;2023-07-31T04:37:42;100793.81;;;17.00;100.00
21111;BME280;10713;51.912;4.494;2023-07-31T04:40:10;100791.03;;;17.02;100.00
21111;BME280;10713;51.912;4.494;2023-07-31T04:42:35;100793.25;;;16.95;100.00
21111;BME280;10713;51.912;4.494;2023-07-31T04:45:00;100800.28;;;16.96;100.00
21111;BME280;10713;51.912;4.494;2023-07-31T04:47:26;100794.75;;;16.99;100.00
21111;BME280;10713;51.912;4.494;2023-07-31T04:49:51;100795.22;;;17.06;100.00
21111;BME280;10713;51.912;4.494;2023-07-31T04:52:16;100789.13;;;17.04;100.00
21111;BME280;10713;51.912;4.494;2023-07-31T04:54:42;100778.34;;;17.05;100.00
21111;BME280;10713;51.912;4.494;2023-07-31T04:57:07;100780.16;;;17.05;100.00
21111;BME280;10713;51.912;4.494;2023-07-31T04:59:32;100783.56;;;17.07;100.00
21111;BME280;10713;51.912;4.494;2023-07-31T05:01:58;100778.44;;;17.04;100.00
21111;BME280;10713;51.912;4.494;2023-07-31T05:04:23;100769.69;;;17.02;100.00
21111;BME280;10713;51.912;4.494;2023-07-31T05:06:48;100768.06;;;16.99;100.00
21111;BME280;10713;51.912;4.494;2023-07-31T05:09:14;100777.69;;;17.02;100.00
21111;BME280;10713;51.912;4.494;2023-07-31T05:11:39;100766.28;;;17.00;100.00
21111;BME280;10713;51.912;4.494;2023-07-31T05:14:05;100761.81;;;17.00;100.00
21111;BME280;10713;51.912;4.494;2023-07-31T05:16:31;100770.75;;;16.99;100.00
21111;BME280;10713;51.912;4.494;2023-07-31T05:18:56;100761.47;;;17.05;100.00
21111;BME280;10713;51.912;4.494;2023-07-31T05:21:22;100755.22;;;17.06;100.00
21111;BME280;10713;51.912;4.494;2023-07-31T05:23:47;100756.16;;;17.05;100.00
21111;BME280;10713;51.912;4.494;2023-07-31T05:26:13;100750.09;;;17.03;100.00
21111;BME280;10713;51.912;4.494;2023-07-31T05:28:38;100749.19;;;17.02;100.00
21111;BME280;10713;51.912;4.494;2023-07-31T05:31:04;100757.19;;;17.02;100.00
21111;BME280;10713;51.912;4.494;2023-07-31T05:33:30;100748.34;;;17.02;100.00
21111;BME280;10713;51.912;4.494;2023-07-31T05:35:56;100744.53;;;17.06;100.00
21111;BME280;10713;51.912;4.494;2023-07-31T05:38:21;100749.53;;;17.10;100.00
21111;BME280;10713;51.912;4.494;2023-07-31T05:40:47;100733.53;;;17.10;100.00
21111;BME280;10713;51.912;4.494;2023-07-31T05:43:12;100739.84;;;17.22;100.00
21111;BME280;10713;51.912;4.494;2023-07-31T05:45:38;100732.06;;;17.06;100.00
21111;BME280;10713;51.912;4.494;2023-07-31T05:48:04;100732.16;;;17.05;100.00
21111;BME280;10713;51.912;4.494;2023-07-31T05:50:30;100739.59;;;16.87;100.00
21111;BME280;10713;51.912;4.494;2023-07-31T05:52:55;100736.22;;;17.10;100.00
21111;BME280;10713;51.912;4.494;2023-07-31T05:55:20;100724.66;;;16.84;100.00
21111;BME280;10713;51.912;4.494;2023-07-31T05:57:46;100728.72;;;16.90;100.00
21111;BME280;10713;51.912;4.494;2023-07-31T06:00:12;100732.34;;;16.89;100.00
21111;BME280;10713;51.912;4.494;2023-07-31T06:02:38;100720.50;;;16.93;100.00
21111;BME280;10713;51.912;4.494;2023-07-31T06:05:04;100728.88;;;17.14;100.00
21111;BME280;10713;51.912;4.494;2023-07-31T06:07:31;100734.72;;;17.06;100.00
21111;BME280;10713;51.912;4.494;2023-07-31T06:09:56;100733.63;;;16.96;100.00
21111;BME280;10713;51.912;4.494;2023-07-31T06:12:27;100720.66;;;17.30;100.00
21111;BME280;10713;51.912;4.494;2023-07-31T06:14:52;100724.06;;;17.06;100.00
21111;BME280;10713;51.912;4.494;2023-07-31T06:17:17;100731.28;;;17.04;100.00
21111;BME280;10713;51.912;4.494;2023-07-31T06:19:43;100722.78;;;17.12;100.00
21111;BME280;10713;51.912;4.494;2023-07-31T06:22:09;100713.50;;;17.18;100.00
21111;BME280;10713;51.912;4.494;2023-07-31T06:24:34;100705.16;;;17.61;100.00
21111;BME280;10713;51.912;4.494;2023-07-31T06:26:59;100711.69;;;17.31;100.00
21111;BME280;10713;51.912;4.494;2023-07-31T06:29:25;100707.19;;;17.19;100.00
21111;BME280;10713;51.912;4.494;2023-07-31T06:31:50;100707.63;;;17.13;100.00
21111;BME280;10713;51.912;4.494;2023-07-31T06:34:16;100698.56;;;17.15;100.00
21111;BME280;10713;51.912;4.494;2023-07-31T06:36:41;100707.84;;;17.09;100.00
21111;BME280;10713;51.912;4.494;2023-07-31T06:39:07;100701.31;;;17.14;100.00
21111;BME280;10713;51.912;4.494;2023-07-31T06:41:32;100701.44;;;17.25;100.00
21111;BME280;10713;51.912;4.494;2023-07-31T06:43:57;100691.38;;;17.67;100.00
21111;BME280;10713;51.912;4.494;2023-07-31T06:46:23;100687.38;;;17.23;100.00
21111;BME280;10713;51.912;4.494;2023-07-31T06:48:48;100692.63;;;17.74;100.00
21111;BME280;10713;51.912;4.494;2023-07-31T06:51:14;100693.09;;;17.81;100.00
21111;BME280;10713;51.912;4.494;2023-07-31T06:53:39;100683.88;;;17.85;100.00
21111;BME280;10713;51.912;4.494;2023-07-31T06:56:05;100691.81;;;17.86;100.00
21111;BME280;10713;51.912;4.494;2023-07-31T06:58:30;100677.47;;;17.87;100.00
21111;BME280;10713;51.912;4.494;2023-07-31T07:00:55;100688.31;;;17.60;100.00
21111;BME280;10713;51.912;4.494;2023-07-31T07:03:21;100694.16;;;17.40;100.00
21111;BME280;10713;51.912;4.494;2023-07-31T07:05:46;100692.69;;;17.10;100.00
21111;BME280;10713;51.912;4.494;2023-07-31T07:08:12;100691.25;;;17.68;100.00
21111;BME280;10713;51.912;4.494;2023-07-31T07:10:37;100698.84;;;17.62;100.00
21111;BME280;10713;51.912;4.494;2023-07-31T07:13:02;100687.59;;;17.20;100.00
21111;BME280;10713;51.912;4.494;2023-07-31T07:15:28;100694.69;;;17.70;100.00
21111;BME280;10713;51.912;4.494;2023-07-31T07:17:54;100691.81;;;17.22;100.00
21111;BME280;10713;51.912;4.494;2023-07-31T07:20:19;100691.59;;;17.25;100.00
21111;BME280;10713;51.912;4.494;2023-07-31T07:22:45;100691.22;;;17.31;100.00
21111;BME280;10713;51.912;4.494;2023-07-31T07:25:11;100692.91;;;17.32;100.00
21111;BME280;10713;51.912;4.494;2023-07-31T07:27:36;100688.75;;;17.41;100.00
21111;BME280;10713;51.912;4.494;2023-07-31T07:30:02;100693.50;;;17.74;100.00
21111;BME280;10713;51.912;4.494;2023-07-31T07:32:27;100694.03;;;17.92;100.00
21111;BME280;10713;51.912;4.494;2023-07-31T07:34:52;100692.38;;;18.02;100.00
21111;BME280;10713;51.912;4.494;2023-07-31T07:37:18;100699.44;;;18.04;100.00
21111;BME280;10713;51.912;4.494;2023-07-31T07:39:43;100699.84;;;18.10;100.00
21111;BME280;10713;51.912;4.494;2023-07-31T07:42:09;100697.47;;;18.18;100.00
21111;BME280;10713;51.912;4.494;2023-07-31T07:44:34;100695.41;;;18.22;100.00
21111;BME280;10713;51.912;4.494;2023-07-31T07:46:59;100704.94;;;18.26;100.00
21111;BME280;10713;51.912;4.494;2023-07-31T07:49:25;100696.38;;;18.21;100.00
21111;BME280;10713;51.912;4.494;2023-07-31T07:51:50;100702.41;;;18.36;100.00
21111;BME280;10713;51.912;4.494;2023-07-31T07:54:16;100693.09;;;18.41;100.00
21111;BME280;10713;51.912;4.494;2023-07-31T07:56:46;100690.19;;;18.44;100.00
21111;BME280;10713;51.912;4.494;2023-07-31T07:59:11;100688.66;;;18.53;100.00
21111;BME280;10713;51.912;4.494;2023-07-31T08:01:37;100683.81;;;18.58;100.00
21111;BME280;10713;51.912;4.494;2023-07-31T08:04:02;100676.13;;;18.54;100.00
21111;BME280;10713;51.912;4.494;2023-07-31T08:06:27;100679.88;;;18.51;100.00
21111;BME280;10713;51.912;4.494;2023-07-31T08:08:54;100666.88;;;18.46;100.00
21111;BME280;10713;51.912;4.494;2023-07-31T08:11:20;100680.78;;;17.91;100.00
21111;BME280;10713;51.912;4.494;2023-07-31T08:13:45;100677.38;;;17.76;100.00
21111;BME280;10713;51.912;4.494;2023-07-31T08:16:11;100686.34;;;17.75;100.00
21111;BME280;10713;51.912;4.494;2023-07-31T08:18:36;100678.88;;;17.67;100.00
21111;BME280;10713;51.912;4.494;2023-07-31T08:21:02;100675.66;;;17.75;100.00
21111;BME280;10713;51.912;4.494;2023-07-31T08:23:28;100672.81;;;17.78;100.00
21111;BME280;10713;51.912;4.494;2023-07-31T08:25:53;100682.59;;;17.90;100.00
21111;BME280;10713;51.912;4.494;2023-07-31T08:28:18;100686.63;;;18.09;100.00
21111;BME280;10713;51.912;4.494;2023-07-31T08:30:44;100677.16;;;18.16;100.00
21111;BME280;10713;51.912;4.494;2023-07-31T08:33:10;100676.72;;;18.22;100.00
21111;BME280;10713;51.912;4.494;2023-07-31T08:35:36;100677.75;;;18.32;100.00
21111;BME280;10713;51.912;4.494;2023-07-31T08:38:01;100674.81;;;18.11;100.00
21111;BME280;10713;51.912;4.494;2023-07-31T08:40:27;100669.84;;;18.07;100.00
21111;BME280;10713;51.912;4.494;2023-07-31T08:42:54;100678.69;;;18.07;100.00
21111;BME280;10713;51.912;4.494;2023-07-31T08:45:22;100673.97;;;18.11;100.00
21111;BME280;10713;51.912;4.494;2023-07-31T08:47:51;100681.69;;;18.02;100.00
21111;BME280;10713;51.912;4.494;2023-07-31T08:50:21;100678.94;;;18.04;100.00
21111;BME280;10713;51.912;4.494;2023-07-31T08:52:47;100672.84;;;18.02;100.00
21111;BME280;10713;51.912;4.494;2023-07-31T08:55:13;100682.44;;;18.05;100.00
21111;BME280;10713;51.912;4.494;2023-07-31T08:57:39;100679.69;;;18.06;100.00
21111;BME280;10713;51.912;4.494;2023-07-31T09:00:07;100678.19;;;18.02;100.00
21111;BME280;10713;51.912;4.494;2023-07-31T09:02:48;100676.72;;;17.98;100.00
21111;BME280;10713;51.912;4.494;2023-07-31T09:05:17;100675.34;;;17.92;100.00
21111;BME280;10713;51.912;4.494;2023-07-31T09:07:47;100686.31;;;18.00;100.00
21111;BME280;10713;51.912;4.494;2023-07-31T09:10:13;100673.47;;;18.06;100.00
21111;BME280;10713;51.912;4.494;2023-07-31T09:12:39;100679.84;;;18.16;100.00
21111;BME280;10713;51.912;4.494;2023-07-31T09:15:05;100674.31;;;18.30;100.00
21111;BME280;10713;51.912;4.494;2023-07-31T09:17:32;100672.91;;;18.37;100.00
21111;BME280;10713;51.912;4.494;2023-07-31T09:20:18;100666.38;;;18.41;100.00
21111;BME280;10713;51.912;4.494;2023-07-31T09:22:44;100682.41;;;18.41;100.00
21111;BME280;10713;51.912;4.494;2023-07-31T09:25:20;100671.47;;;18.44;100.00
21111;BME280;10713;51.912;4.494;2023-07-31T09:27:50;100671.53;;;18.56;100.00
21111;BME280;10713;51.912;4.494;2023-07-31T09:30:17;100660.88;;;18.67;100.00
21111;BME280;10713;51.912;4.494;2023-07-31T09:32:44;100661.28;;;18.74;100.00
21111;BME280;10713;51.912;4.494;2023-07-31T09:35:27;100670.66;;;18.79;100.00
21111;BME280;10713;51.912;4.494;2023-07-31T09:37:55;100662.72;;;19.35;100.00
21111;BME280;10713;51.912;4.494;2023-07-31T09:43:03;100661.38;;;19.19;100.00
21111;BME280;10713;51.912;4.494;2023-07-31T09:45:30;100657.63;;;19.32;100.00
21111;BME280;10713;51.912;4.494;2023-07-31T09:47:56;100662.38;;;19.40;100.00
21111;BME280;10713;51.912;4.494;2023-07-31T09:50:23;100651.53;;;19.30;100.00
21111;BME280;10713;51.912;4.494;2023-07-31T09:52:50;100654.22;;;19.42;100.00
21111;BME280;10713;51.912;4.494;2023-07-31T09:55:16;100657.72;;;19.20;100.00
21111;BME280;10713;51.912;4.494;2023-07-31T09:57:45;100658.69;;;19.07;100.00
21111;BME280;10713;51.912;4.494;2023-07-31T10:00:12;100656.75;;;19.09;100.00
21111;BME280;10713;51.912;4.494;2023-07-31T10:02:38;100653.47;;;19.06;100.00
21111;BME280;10713;51.912;4.494;2023-07-31T10:05:05;100655.66;;;19.01;100.00
21111;BME280;10713;51.912;4.494;2023-07-31T10:07:31;100660.38;;;18.97;100.00
21111;BME280;10713;51.912;4.494;2023-07-31T10:10:00;100661.69;;;18.80;100.00
21111;BME280;10713;51.912;4.494;2023-07-31T10:12:27;100653.66;;;18.80;100.00
21111;BME280;10713;51.912;4.494;2023-07-31T10:14:56;100659.25;;;18.77;100.00
21111;BME280;10713;51.912;4.494;2023-07-31T10:17:22;100660.19;;;18.76;100.00
21111;BME280;10713;51.912;4.494;2023-07-31T10:19:49;100655.69;;;18.77;100.00
21111;BME280;10713;51.912;4.494;2023-07-31T10:22:15;100671.66;;;18.89;100.00
21111;BME280;10713;51.912;4.494;2023-07-31T10:24:42;100659.13;;;18.79;100.00
21111;BME280;10713;51.912;4.494;2023-07-31T10:27:08;100665.94;;;18.83;100.00
21111;BME280;10713;51.912;4.494;2023-07-31T10:29:35;100676.66;;;18.83;100.00
21111;BME280;10713;51.912;4.494;2023-07-31T10:32:01;100666.66;;;18.85;100.00
21111;BME280;10713;51.912;4.494;2023-07-31T10:34:28;100670.81;;;18.89;100.00
21111;BME280;10713;51.912;4.494;2023-07-31T10:37:29;100673.97;;;18.83;100.00
21111;BME280;10713;51.912;4.494;2023-07-31T10:45:03;100654.56;;;19.03;100.00
21111;BME280;10713;51.912;4.494;2023-07-31T10:47:29;100663.44;;;19.04;100.00
21111;BME280;10713;51.912;4.494;2023-07-31T10:50:22;100658.66;;;18.96;100.00
21111;BME280;10713;51.912;4.494;2023-07-31T10:52:53;100662.69;;;19.02;100.00
21111;BME280;10713;51.912;4.494;2023-07-31T10:55:28;100658.09;;;19.04;100.00
21111;BME280;10713;51.912;4.494;2023-07-31T10:57:55;100654.91;;;19.10;100.00
21111;BME280;10713;51.912;4.494;2023-07-31T11:02:57;100641.06;;;19.16;100.00
21111;BME280;10713;51.912;4.494;2023-07-31T11:10:46;100637.56;;;19.38;100.00
21111;BME280;10713;51.912;4.494;2023-07-31T11:13:13;100635.97;;;19.35;100.00
21111;BME280;10713;51.912;4.494;2023-07-31T11:15:38;100629.63;;;19.36;100.00
21111;BME280;10713;51.912;4.494;2023-07-31T11:18:04;100622.94;;;19.42;100.00
21111;BME280;10713;51.912;4.494;2023-07-31T11:20:35;100616.50;;;19.45;100.00
21111;BME280;10713;51.912;4.494;2023-07-31T11:23:06;100630.38;;;19.50;100.00
21111;BME280;10713;51.912;4.494;2023-07-31T11:25:32;100623.19;;;19.50;100.00
21111;BME280;10713;51.912;4.494;2023-07-31T11:28:05;100627.69;;;19.50;100.00
21111;BME280;10713;51.912;4.494;2023-07-31T11:30:30;100618.00;;;20.03;100.00
21111;BME280;10713;51.912;4.494;2023-07-31T11:32:56;100605.47;;;20.04;100.00
21111;BME280;10713;51.912;4.494;2023-07-31T11:35:21;100608.97;;;20.05;100.00
21111;BME280;10713;51.912;4.494;2023-07-31T11:37:47;100619.31;;;20.09;100.00
21111;BME280;10713;51.912;4.494;2023-07-31T11:40:14;100613.31;;;20.17;100.00
21111;BME280;10713;51.912;4.494;2023-07-31T11:42:40;100610.25;;;20.21;100.00
21111;BME280;10713;51.912;4.494;2023-07-31T11:45:09;100607.13;;;20.37;100.00
21111;BME280;10713;51.912;4.494;2023-07-31T11:47:38;100612.63;;;20.36;100.00
21111;BME280;10713;51.912;4.494;2023-07-31T11:50:04;100622.31;;;20.27;100.00
21111;BME280;10713;51.912;4.494;2023-07-31T11:52:33;100638.69;;;20.13;100.00
21111;BME280;10713;51.912;4.494;2023-07-31T11:55:00;100638.78;;;20.11;100.00
21111;BME280;10713;51.912;4.494;2023-07-31T11:57:26;100630.63;;;20.13;100.00
21111;BME280;10713;51.912;4.494;2023-07-31T11:59:53;100627.13;;;20.12;100.00
21111;BME280;10713;51.912;4.494;2023-07-31T12:02:19;100601.53;;;20.08;100.00
21111;BME280;10713;51.912;4.494;2023-07-31T12:04:46;100613.81;;;19.78;100.00
21111;BME280;10713;51.912;4.494;2023-07-31T12:07:12;100616.22;;;19.82;100.00
21111;BME280;10713;51.912;4.494;2023-07-31T12:09:38;100609.69;;;19.74;100.00
21111;BME280;10713;51.912;4.494;2023-07-31T12:12:08;100607.13;;;19.73;100.00
21111;BME280;10713;51.912;4.494;2023-07-31T12:14:33;100609.06;;;19.71;100.00
21111;BME280;10713;51.912;4.494;2023-07-31T12:17:01;100602.16;;;20.12;100.00
21111;BME280;10713;51.912;4.494;2023-07-31T12:19:29;100590.81;;;20.08;100.00
21111;BME280;10713;51.912;4.494;2023-07-31T12:21:59;100591.47;;;20.00;100.00
21111;BME280;10713;51.912;4.494;2023-07-31T12:24:26;100599.16;;;20.26;100.00
21111;BME280;10713;51.912;4.494;2023-07-31T12:26:51;100582.88;;;20.39;100.00
21111;BME280;10713;51.912;4.494;2023-07-31T12:29:17;100589.19;;;20.49;100.00
21111;BME280;10713;51.912;4.494;2023-07-31T12:31:43;100583.53;;;20.63;100.00
21111;BME280;10713;51.912;4.494;2023-07-31T12:34:18;100572.84;;;20.73;100.00
21111;BME280;10713;51.912;4.494;2023-07-31T12:36:45;100572.19;;;20.81;100.00
21111;BME280;10713;51.912;4.494;2023-07-31T12:39:12;100559.31;;;20.75;100.00
21111;BME280;10713;51.912;4.494;2023-07-31T12:41:38;100556.19;;;20.69;100.00
21111;BME280;10713;51.912;4.494;2023-07-31T12:44:03;100562.38;;;20.49;100.00
21111;BME280;10713;51.912;4.494;2023-07-31T12:46:29;100557.66;;;20.41;100.00
21111;BME280;10713;51.912;4.494;2023-07-31T12:48:54;100583.16;;;20.36;100.00
21111;BME280;10713;51.912;4.494;2023-07-31T12:51:20;100581.72;;;20.32;100.00
21111;BME280;10713;51.912;4.494;2023-07-31T12:53:46;100570.38;;;20.28;100.00
21111;BME280;10713;51.912;4.494;2023-07-31T12:56:11;100575.88;;;20.27;100.00